createdAt,value
2023-05-01T00:00:46.531Z,99380.80
2023-05-01T00:03:24.185Z,99385.60
2023-05-01T00:06:08.042Z,99385.60
2023-05-01T00:08:45.116Z,99387.00
2023-05-01T00:11:23.387Z,99386.40
2023-05-01T00:14:01.129Z,99383.80
2023-05-01T00:16:38.292Z,99386.40
2023-05-01T00:19:18.595Z,99386.40
2023-05-01T00:21:55.543Z,99387.00
2023-05-01T00:24:32.827Z,99383.20
2023-05-01T00:27:11.065Z,99385.20
2023-05-01T00:29:48.841Z,99385.20
2023-05-01T00:32:25.527Z,99383.80
2023-05-01T00:35:01.927Z,99387.60
2023-05-01T00:37:38.640Z,99390.80
2023-05-01T00:40:16.373Z,99392.20
2023-05-01T00:42:52.757Z,99394.20
2023-05-01T00:45:31.225Z,99392.00
2023-05-01T00:48:08.737Z,99394.00
2023-05-01T00:50:47.177Z,99391.00
2023-05-01T00:53:26.390Z,99389.40
2023-05-01T00:56:04.325Z,99393.20
2023-05-01T00:58:41.626Z,99398.00
2023-05-01T01:01:19.175Z,99396.40
2023-05-01T01:03:56.848Z,99392.00
2023-05-01T01:06:54.523Z,99396.00
2023-05-01T01:09:51.023Z,99394.40
2023-05-01T01:12:39.389Z,99394.20
2023-05-01T01:15:27.746Z,99396.60
2023-05-01T01:18:18.108Z,99398.60
2023-05-01T01:21:07.645Z,99392.40
2023-05-01T01:24:32.105Z,99386.60
2023-05-01T01:27:55.945Z,99393.00
2023-05-01T01:31:12.240Z,99385.40
2023-05-01T01:34:10.805Z,99381.60
2023-05-01T01:36:57.388Z,99388.80
2023-05-01T01:39:47.397Z,99388.40
2023-05-01T01:42:36.210Z,99386.40
2023-05-01T01:45:24.946Z,99384.80
2023-05-01T01:48:04.176Z,99383.60
2023-05-01T01:50:42.389Z,99383.00
2023-05-01T01:53:24.059Z,99378.40
2023-05-01T01:56:03.834Z,99377.40
2023-05-01T01:58:43.021Z,99379.20
2023-05-01T02:01:22.294Z,99379.20
2023-05-01T02:04:01.417Z,99375.00
2023-05-01T02:06:39.709Z,99373.40
2023-05-01T02:09:20.256Z,99371.80
2023-05-01T02:11:58.673Z,99367.80
2023-05-01T02:14:36.780Z,99369.00
2023-05-01T02:17:15.066Z,99363.80
2023-05-01T02:19:55.443Z,99359.00
2023-05-01T02:22:33.709Z,99363.40
2023-05-01T02:25:13.972Z,99359.40
2023-05-01T02:28:02.092Z,99362.00
2023-05-01T02:30:39.496Z,99363.40
2023-05-01T02:33:16.276Z,99362.60
2023-05-01T02:35:52.756Z,99362.80
2023-05-01T02:38:30.024Z,99359.60
2023-05-01T02:41:07.743Z,99362.60
2023-05-01T02:43:46.773Z,99360.00
2023-05-01T02:46:25.901Z,99363.40
2023-05-01T02:49:05.354Z,99365.80
2023-05-01T02:51:42.655Z,99366.60
2023-05-01T02:54:19.876Z,99361.00
2023-05-01T02:56:58.331Z,99363.80
2023-05-01T02:59:35.098Z,99359.60
2023-05-01T03:02:11.739Z,99360.60
2023-05-01T03:04:48.846Z,99359.00
2023-05-01T03:07:25.412Z,99359.80
2023-05-01T03:10:03.299Z,99357.00
2023-05-01T03:12:39.757Z,99354.80
2023-05-01T03:15:18.643Z,99354.20
2023-05-01T03:17:55.158Z,99354.00
2023-05-01T03:20:32.093Z,99353.60
2023-05-01T03:23:09.314Z,99353.60
2023-05-01T03:25:45.767Z,99353.40
2023-05-01T03:28:23.749Z,99351.40
2023-05-01T03:31:00.495Z,99346.20
2023-05-01T03:33:37.117Z,99348.60
2023-05-01T03:36:14.213Z,99341.20
2023-05-01T03:38:50.797Z,99342.20
2023-05-01T03:41:45.664Z,99339.20
2023-05-01T03:44:32.949Z,99342.60
2023-05-01T03:47:10.476Z,99342.40
2023-05-01T03:49:49.978Z,99338.00
2023-05-01T03:52:26.520Z,99340.20
2023-05-01T03:55:03.597Z,99334.80
2023-05-01T03:57:47.257Z,99332.20
2023-05-01T04:00:24.262Z,99335.40
2023-05-01T04:03:00.916Z,99332.00
2023-05-01T04:05:38.616Z,99339.80
2023-05-01T04:08:16.114Z,99339.60
2023-05-01T04:10:52.609Z,99340.60
2023-05-01T04:13:28.882Z,99338.60
2023-05-01T04:16:05.492Z,99341.80
2023-05-01T04:18:41.914Z,99342.80
2023-05-01T04:21:18.971Z,99342.60
2023-05-01T04:23:58.444Z,99347.40
2023-05-01T04:26:34.959Z,99346.80
2023-05-01T04:29:11.675Z,99348.60
2023-05-01T04:31:48.107Z,99349.20
2023-05-01T04:34:24.817Z,99350.00
2023-05-01T04:37:02.221Z,99347.80
2023-05-01T04:39:39.199Z,99350.00
2023-05-01T04:42:16.472Z,99351.00
2023-05-01T04:44:53.346Z,99347.80
2023-05-01T04:47:29.958Z,99344.60
2023-05-01T04:50:07.133Z,99346.00
2023-05-01T04:52:44.279Z,99347.60
2023-05-01T04:55:20.779Z,99346.40
2023-05-01T04:58:20.177Z,99347.40
2023-05-01T05:00:58.605Z,99349.40
2023-05-01T05:03:35.138Z,99344.20
2023-05-01T05:06:11.814Z,99340.60
2023-05-01T05:08:52.043Z,99345.80
2023-05-01T05:11:28.534Z,99348.00
2023-05-01T05:14:05.299Z,99345.20
2023-05-01T05:16:41.919Z,99349.20
2023-05-01T05:19:18.231Z,99349.40
2023-05-01T05:21:54.608Z,99350.20
2023-05-01T05:24:30.981Z,99350.00
2023-05-01T05:27:07.655Z,99350.00
2023-05-01T05:29:44.933Z,99354.00
2023-05-01T05:32:21.254Z,99361.40
2023-05-01T05:34:58.232Z,99357.80
2023-05-01T05:37:35.469Z,99361.60
2023-05-01T05:40:15.951Z,99364.60
2023-05-01T05:43:03.621Z,99365.20
2023-05-01T05:45:41.353Z,99366.40
2023-05-01T05:48:18.046Z,99371.20
2023-05-01T05:50:55.025Z,99369.00
2023-05-01T05:53:32.276Z,99376.40
2023-05-01T05:56:10.216Z,99373.20
2023-05-01T05:58:47.755Z,99374.00
2023-05-01T06:01:24.252Z,99376.00
2023-05-01T06:04:01.053Z,99376.00
2023-05-01T06:06:38.603Z,99381.40
2023-05-01T06:09:17.299Z,99380.60
2023-05-01T06:11:53.947Z,99381.20
2023-05-01T06:14:30.406Z,99384.00
2023-05-01T06:17:07.283Z,99387.00
2023-05-01T06:19:43.623Z,99385.20
2023-05-01T06:22:20.403Z,99387.60
2023-05-01T06:25:31.768Z,99381.80
2023-05-01T06:28:08.488Z,99380.20
2023-05-01T06:30:44.876Z,99383.60
2023-05-01T06:33:21.955Z,99381.20
2023-05-01T06:36:09.092Z,99379.00
2023-05-01T06:38:48.928Z,99378.80
2023-05-01T06:41:26.965Z,99384.80
2023-05-01T06:44:03.423Z,99386.80
2023-05-01T06:46:40.249Z,99389.40
2023-05-01T06:49:16.602Z,99389.00
2023-05-01T06:51:53.036Z,99391.40
2023-05-01T06:54:29.501Z,99388.20
2023-05-01T06:57:06.575Z,99383.00
2023-05-01T06:59:43.622Z,99387.80
2023-05-01T07:02:20.010Z,99386.00
2023-05-01T07:04:57.312Z,99377.80
2023-05-01T07:07:33.577Z,99380.60
2023-05-01T07:10:12.011Z,99384.60
2023-05-01T07:12:48.339Z,99379.80
2023-05-01T07:15:25.209Z,99379.20
2023-05-01T07:18:03.183Z,99382.20
2023-05-01T07:20:40.342Z,99382.60
2023-05-01T07:23:16.868Z,99391.60
2023-05-01T07:25:54.056Z,99384.40
2023-05-01T07:28:30.746Z,99384.40
2023-05-01T07:31:07.487Z,99389.40
2023-05-01T07:33:43.895Z,99385.60
2023-05-01T07:36:22.295Z,99381.40
2023-05-01T07:38:58.934Z,99386.00
2023-05-01T07:41:35.487Z,99383.40
2023-05-01T07:44:12.232Z,99382.20
2023-05-01T07:46:49.193Z,99384.20
2023-05-01T07:49:25.586Z,99387.80
2023-05-01T07:52:02.365Z,99384.00
2023-05-01T07:54:39.157Z,99387.40
2023-05-01T07:57:15.525Z,99383.80
2023-05-01T07:59:57.190Z,99383.60
2023-05-01T08:02:34.128Z,99381.20
2023-05-01T08:05:12.377Z,99384.60
2023-05-01T08:07:50.037Z,99381.00
2023-05-01T08:10:28.496Z,99387.00
2023-05-01T08:13:05.653Z,99377.80
2023-05-01T08:15:43.076Z,99377.40
2023-05-01T08:18:21.351Z,99380.20
2023-05-01T08:20:58.065Z,99383.80
2023-05-01T08:23:34.710Z,99382.60
2023-05-01T08:26:11.177Z,99383.40
2023-05-01T08:28:47.919Z,99381.00
2023-05-01T08:31:25.412Z,99380.60
2023-05-01T08:34:02.412Z,99375.00
2023-05-01T08:36:39.430Z,99374.00
2023-05-01T08:39:16.291Z,99371.80
2023-05-01T08:41:54.148Z,99364.80
2023-05-01T08:44:32.002Z,99361.80
2023-05-01T08:47:19.109Z,99364.40
2023-05-01T08:49:56.964Z,99367.80
2023-05-01T08:52:35.461Z,99366.40
2023-05-01T08:55:17.674Z,99361.60
2023-05-01T08:57:56.265Z,99361.40
2023-05-01T09:00:35.651Z,99365.40
2023-05-01T09:03:14.834Z,99370.00
2023-05-01T09:05:53.529Z,99363.20
2023-05-01T09:08:29.786Z,99357.20
2023-05-01T09:11:07.869Z,99356.20
2023-05-01T09:13:44.369Z,99349.80
2023-05-01T09:16:21.365Z,99345.60
2023-05-01T09:19:00.257Z,99341.40
2023-05-01T09:21:36.718Z,99335.00
2023-05-01T09:24:13.347Z,99330.60
2023-05-01T09:26:49.847Z,99332.40
2023-05-01T09:29:47.975Z,99336.60
2023-05-01T09:32:29.120Z,99338.00
2023-05-01T09:35:18.223Z,99327.60
2023-05-01T09:37:57.003Z,99317.60
2023-05-01T09:40:35.314Z,99322.60
2023-05-01T09:43:12.194Z,99325.40
2023-05-01T09:46:09.639Z,99323.20
2023-05-01T09:48:56.520Z,99313.20
2023-05-01T09:51:36.880Z,99308.20
2023-05-01T09:54:25.648Z,99313.00
2023-05-01T09:57:04.471Z,99311.00
2023-05-01T09:59:40.894Z,99306.60
2023-05-01T10:02:34.151Z,99299.20
2023-05-01T10:05:12.588Z,99296.40
2023-05-01T10:08:05.891Z,99294.20
2023-05-01T10:10:44.064Z,99290.60
2023-05-01T10:13:24.063Z,99284.60
2023-05-01T10:16:01.765Z,99285.00
2023-05-01T10:18:38.982Z,99279.20
2023-05-01T10:21:16.952Z,99275.60
2023-05-01T10:23:54.328Z,99283.00
2023-05-01T10:26:31.589Z,99276.80
2023-05-01T10:29:08.683Z,99271.00
2023-05-01T10:31:44.928Z,99274.00
2023-05-01T10:34:28.434Z,99267.60
2023-05-01T10:37:14.243Z,99266.80
2023-05-01T10:39:50.533Z,99259.00
2023-05-01T10:42:29.105Z,99260.00
2023-05-01T10:45:35.255Z,99254.60
2023-05-01T10:48:12.994Z,99256.00
2023-05-01T10:51:20.262Z,99260.00
2023-05-01T10:54:30.219Z,99254.20
2023-05-01T10:57:08.706Z,99252.80
2023-05-01T11:00:20.560Z,99245.40
2023-05-01T11:03:34.006Z,99251.60
2023-05-01T11:06:14.006Z,99245.60
2023-05-01T11:08:50.529Z,99242.00
2023-05-01T11:11:54.058Z,99238.40
2023-05-01T11:14:50.288Z,99240.60
2023-05-01T11:17:50.660Z,99235.60
2023-05-01T11:20:58.991Z,99234.20
2023-05-01T11:23:35.835Z,99227.80
2023-05-01T11:26:12.513Z,99224.60
2023-05-01T11:28:49.079Z,99222.80
2023-05-01T11:31:28.275Z,99234.40
2023-05-01T11:34:07.037Z,99216.80
2023-05-01T11:36:55.543Z,99212.40
2023-05-01T11:39:32.157Z,99216.00
2023-05-01T11:42:14.851Z,99208.60
2023-05-01T11:45:12.144Z,99202.40
2023-05-01T11:47:49.351Z,99199.00
2023-05-01T11:50:32.928Z,99191.60
2023-05-01T11:53:16.795Z,99187.80
2023-05-01T11:55:53.017Z,99187.40
2023-05-01T11:58:39.832Z,99187.80
2023-05-01T12:01:17.702Z,99181.40
2023-05-01T12:03:54.558Z,99183.40
2023-05-01T12:06:45.596Z,99180.20
2023-05-01T12:09:26.881Z,99178.00
2023-05-01T12:12:04.528Z,99168.60
2023-05-01T12:14:42.294Z,99168.60
2023-05-01T12:17:30.290Z,99169.60
2023-05-01T12:20:09.267Z,99173.80
2023-05-01T12:23:35.903Z,99171.40
2023-05-01T12:26:25.756Z,99162.40
2023-05-01T12:29:07.744Z,99162.60
2023-05-01T12:31:51.187Z,99153.00
2023-05-01T12:34:33.852Z,99146.60
2023-05-01T12:37:10.787Z,99150.00
2023-05-01T12:39:47.765Z,99145.00
2023-05-01T12:42:24.279Z,99141.40
2023-05-01T12:45:09.084Z,99141.20
2023-05-01T12:47:46.451Z,99139.40
2023-05-01T12:50:23.532Z,99143.60
2023-05-01T12:53:05.308Z,99135.20
2023-05-01T12:55:52.211Z,99124.40
2023-05-01T12:58:38.549Z,99128.20
2023-05-01T13:01:24.421Z,99122.00
2023-05-01T13:04:01.104Z,99113.20
2023-05-01T13:06:41.700Z,99109.80
2023-05-01T13:09:18.321Z,99111.20
2023-05-01T13:12:06.821Z,99107.20
2023-05-01T13:14:44.680Z,99108.40
2023-05-01T13:17:30.210Z,99108.80
2023-05-01T13:20:09.505Z,99103.40
2023-05-01T13:22:46.673Z,99106.40
2023-05-01T13:25:23.819Z,99104.20
2023-05-01T13:28:00.259Z,99096.60
2023-05-01T13:30:39.396Z,99091.60
2023-05-01T13:33:16.280Z,99093.40
2023-05-01T13:35:52.682Z,99083.20
2023-05-01T13:38:29.729Z,99078.40
2023-05-01T13:41:06.689Z,99074.20
2023-05-01T13:43:44.255Z,99071.60
2023-05-01T13:46:23.616Z,99066.00
2023-05-01T13:49:04.932Z,99058.60
2023-05-01T13:51:47.420Z,99058.80
2023-05-01T13:54:24.460Z,99063.60
2023-05-01T13:57:01.878Z,99052.60
2023-05-01T13:59:43.003Z,99054.00
2023-05-01T14:02:29.181Z,99056.40
2023-05-01T14:05:10.992Z,99052.20
2023-05-01T14:07:59.554Z,99052.00
2023-05-01T14:10:36.220Z,99049.00
2023-05-01T14:13:14.031Z,99039.20
2023-05-01T14:15:50.728Z,99048.00
2023-05-01T14:18:27.101Z,99032.00
2023-05-01T14:21:05.188Z,99038.00
2023-05-01T14:23:43.207Z,99029.40
2023-05-01T14:26:25.073Z,99026.20
2023-05-01T14:29:01.371Z,99025.60
2023-05-01T14:31:38.137Z,99026.20
2023-05-01T14:34:19.069Z,99020.00
2023-05-01T14:36:58.541Z,99016.20
2023-05-01T14:39:36.882Z,99008.40
2023-05-01T14:42:14.155Z,99008.20
2023-05-01T14:44:50.530Z,99008.00
2023-05-01T14:47:26.958Z,98999.20
2023-05-01T14:50:03.509Z,99004.00
2023-05-01T14:52:42.384Z,98996.20
2023-05-01T14:55:22.426Z,98998.80
2023-05-01T14:57:59.463Z,98992.60
2023-05-01T15:00:36.291Z,99000.20
2023-05-01T15:03:12.687Z,98989.60
2023-05-01T15:05:49.238Z,98990.60
2023-05-01T15:08:25.748Z,98991.00
2023-05-01T15:11:02.376Z,98984.40
2023-05-01T15:13:42.768Z,98986.60
2023-05-01T15:16:23.163Z,98982.80
2023-05-01T15:18:59.424Z,98978.60
2023-05-01T15:21:36.025Z,98980.20
2023-05-01T15:24:12.520Z,98976.60
2023-05-01T15:26:48.879Z,98977.60
2023-05-01T15:29:25.182Z,98979.80
2023-05-01T15:32:12.418Z,98969.40
2023-05-01T15:34:55.191Z,98968.00
2023-05-01T15:37:32.168Z,98971.80
2023-05-01T15:40:10.997Z,98964.00
2023-05-01T15:42:48.285Z,98963.40
2023-05-01T15:45:24.757Z,98962.60
2023-05-01T15:48:01.427Z,98958.60
2023-05-01T15:50:38.505Z,98958.40
2023-05-01T15:53:18.099Z,98960.00
2023-05-01T15:55:57.083Z,98958.40
2023-05-01T15:58:33.493Z,98956.80
2023-05-01T16:01:10.352Z,98960.40
2023-05-01T16:03:51.228Z,98949.60
2023-05-01T16:06:29.083Z,98947.40
2023-05-01T16:09:06.205Z,98947.40
2023-05-01T16:11:42.904Z,98951.60
2023-05-01T16:14:20.279Z,98943.80
2023-05-01T16:16:56.908Z,98943.60
2023-05-01T16:19:36.665Z,98936.00
2023-05-01T16:22:16.832Z,98938.20
2023-05-01T16:24:53.110Z,98929.80
2023-05-01T16:27:29.327Z,98928.40
2023-05-01T16:30:11.192Z,98926.40
2023-05-01T16:32:46.293Z,98934.00
2023-05-01T16:35:29.343Z,98929.80
2023-05-01T16:38:07.880Z,98927.60
2023-05-01T16:40:48.062Z,98924.40
2023-05-01T16:43:25.539Z,98922.40
2023-05-01T16:46:02.581Z,98920.40
2023-05-01T16:48:42.045Z,98923.80
2023-05-01T16:51:20.045Z,98922.20
2023-05-01T16:53:56.570Z,98926.20
2023-05-01T16:56:32.852Z,98927.00
2023-05-01T16:59:09.509Z,98926.00
2023-05-01T17:01:46.110Z,98931.60
2023-05-01T17:04:22.756Z,98931.00
2023-05-01T17:07:00.010Z,98921.80
2023-05-01T17:09:36.448Z,98919.20
2023-05-01T17:12:13.133Z,98919.20
2023-05-01T17:14:49.824Z,98920.60
2023-05-01T17:17:27.484Z,98922.60
2023-05-01T17:20:04.329Z,98921.20
2023-05-01T17:22:41.198Z,98920.20
2023-05-01T17:25:17.828Z,98913.00
2023-05-01T17:27:54.979Z,98917.20
2023-05-01T17:30:32.458Z,98913.40
2023-05-01T17:33:08.742Z,98911.40
2023-05-01T17:35:45.162Z,98908.40
2023-05-01T17:38:21.602Z,98908.40
2023-05-01T17:40:58.071Z,98906.60
2023-05-01T17:43:34.370Z,98907.60
2023-05-01T17:46:11.014Z,98905.40
2023-05-01T17:48:49.220Z,98906.00
2023-05-01T17:51:25.857Z,98911.00
2023-05-01T17:54:03.129Z,98908.00
2023-05-01T17:56:40.300Z,98904.00
2023-05-01T17:59:19.783Z,98907.00
2023-05-01T18:01:57.205Z,98904.80
2023-05-01T18:04:36.079Z,98903.40
2023-05-01T18:07:13.658Z,98908.60
2023-05-01T18:09:50.822Z,98902.40
2023-05-01T18:12:28.105Z,98904.00
2023-05-01T18:15:05.105Z,98908.20
2023-05-01T18:17:42.144Z,98904.40
2023-05-01T18:20:19.677Z,98906.60
2023-05-01T18:22:56.807Z,98906.00
2023-05-01T18:25:33.650Z,98904.60
2023-05-01T18:28:10.407Z,98904.80
2023-05-01T18:30:47.470Z,98898.20
2023-05-01T18:33:25.025Z,98898.20
2023-05-01T18:36:01.919Z,98898.40
2023-05-01T18:38:38.798Z,98899.00
2023-05-01T18:41:16.502Z,98899.40
2023-05-01T18:43:56.323Z,98900.20
2023-05-01T18:46:34.694Z,98902.60
2023-05-01T18:49:11.999Z,98902.00
2023-05-01T18:51:49.039Z,98902.00
2023-05-01T18:54:28.123Z,98894.80
2023-05-01T18:57:06.106Z,98899.60
2023-05-01T18:59:44.782Z,98898.80
2023-05-01T19:02:22.045Z,98898.60
2023-05-01T19:04:59.239Z,98896.80
2023-05-01T19:07:35.899Z,98897.00
2023-05-01T19:10:15.001Z,98890.00
2023-05-01T19:12:52.334Z,98891.20
2023-05-01T19:15:32.227Z,98892.80
2023-05-01T19:18:09.565Z,98889.00
2023-05-01T19:20:49.852Z,98890.60
2023-05-01T19:23:30.748Z,98884.60
2023-05-01T19:26:13.829Z,98887.60
2023-05-01T19:28:52.123Z,98885.80
2023-05-01T19:31:29.958Z,98889.00
2023-05-01T19:34:08.548Z,98888.20
2023-05-01T19:36:47.514Z,98888.40
2023-05-01T19:39:29.849Z,98882.80
2023-05-01T19:42:07.366Z,98881.80
2023-05-01T19:44:46.219Z,98877.60
2023-05-01T19:47:27.102Z,98873.20
2023-05-01T19:50:05.102Z,98873.00
2023-05-01T19:52:43.710Z,98873.80
2023-05-01T19:55:23.944Z,98877.20
2023-05-01T19:58:03.277Z,98876.20
2023-05-01T20:00:42.310Z,98880.00
2023-05-01T20:03:21.266Z,98872.20
2023-05-01T20:06:02.214Z,98869.00
2023-05-01T20:08:40.012Z,98869.80
2023-05-01T20:11:20.132Z,98872.40
2023-05-01T20:13:58.493Z,98868.80
2023-05-01T20:16:37.987Z,98863.60
2023-05-01T20:19:18.996Z,98863.60
2023-05-01T20:21:56.738Z,98862.80
2023-05-01T20:24:33.952Z,98854.40
2023-05-01T20:27:11.495Z,98858.20
2023-05-01T20:29:48.968Z,98856.40
2023-05-01T20:32:26.557Z,98857.80
2023-05-01T20:35:16.778Z,98855.00
2023-05-01T20:37:54.776Z,98859.00
2023-05-01T20:40:32.407Z,98852.40
2023-05-01T20:43:09.821Z,98856.80
2023-05-01T20:45:47.179Z,98860.20
2023-05-01T20:48:24.634Z,98861.40
2023-05-01T20:51:01.842Z,98859.60
2023-05-01T20:53:38.688Z,98853.00
2023-05-01T20:56:18.289Z,98859.00
2023-05-01T20:58:55.160Z,98858.60
2023-05-01T21:01:34.551Z,98855.80
2023-05-01T21:04:11.644Z,98859.20
2023-05-01T21:06:48.607Z,98856.40
2023-05-01T21:09:25.414Z,98855.20
2023-05-01T21:12:04.983Z,98855.80
2023-05-01T21:14:42.768Z,98858.40
2023-05-01T21:17:23.204Z,98864.20
2023-05-01T21:20:00.328Z,98865.80
2023-05-01T21:22:37.051Z,98867.60
2023-05-01T21:25:27.016Z,98868.00
2023-05-01T21:28:05.855Z,98868.60
2023-05-01T21:30:42.878Z,98865.80
2023-05-01T21:33:20.598Z,98868.60
2023-05-01T21:35:56.953Z,98872.20
2023-05-01T21:38:33.466Z,98875.60
2023-05-01T21:41:13.005Z,98876.60
2023-05-01T21:43:49.941Z,98877.20
2023-05-01T21:46:26.519Z,98884.40
2023-05-01T21:49:02.926Z,98883.00
2023-05-01T21:51:39.554Z,98886.20
2023-05-01T21:54:18.074Z,98887.80
2023-05-01T21:56:55.554Z,98887.80
2023-05-01T21:59:38.997Z,98890.40
2023-05-01T22:02:16.518Z,98887.20
2023-05-01T22:04:56.927Z,98889.20
2023-05-01T22:07:33.610Z,98895.60
2023-05-01T22:10:14.314Z,98894.60
2023-05-01T22:12:51.834Z,98899.00
2023-05-01T22:15:28.347Z,98893.60
2023-05-01T22:18:04.902Z,98898.20
2023-05-01T22:20:41.471Z,98902.20
2023-05-01T22:23:18.071Z,98898.60
2023-05-01T22:25:59.982Z,98900.60
2023-05-01T22:28:38.864Z,98898.60
2023-05-01T22:31:15.008Z,98895.80
2023-05-01T22:33:53.335Z,98900.80
2023-05-01T22:36:30.458Z,98903.60
2023-05-01T22:39:07.090Z,98902.20
2023-05-01T22:41:43.888Z,98905.00
2023-05-01T22:44:22.517Z,98900.40
2023-05-01T22:46:59.588Z,98900.20
2023-05-01T22:49:36.464Z,98902.80
2023-05-01T22:52:13.640Z,98900.40
2023-05-01T22:54:51.943Z,98900.40
2023-05-01T22:57:28.795Z,98903.40
2023-05-01T23:00:06.725Z,98904.20
2023-05-01T23:02:43.909Z,98904.40
2023-05-01T23:05:21.115Z,98902.80
2023-05-01T23:07:57.390Z,98907.00
2023-05-01T23:10:34.045Z,98907.00
2023-05-01T23:13:22.706Z,98910.60
2023-05-01T23:15:59.733Z,98910.60
2023-05-01T23:18:42.496Z,98913.00
2023-05-01T23:21:21.419Z,98916.20
2023-05-01T23:23:57.917Z,98913.20
2023-05-01T23:26:34.120Z,98910.20
2023-05-01T23:29:10.588Z,98907.60
2023-05-01T23:31:51.903Z,98905.40
2023-05-01T23:34:29.427Z,98899.00
2023-05-01T23:37:06.648Z,98903.40
2023-05-01T23:39:42.978Z,98905.40
2023-05-01T23:42:19.581Z,98903.20
2023-05-01T23:44:56.165Z,98901.80
2023-05-01T23:47:32.779Z,98901.40
2023-05-01T23:50:11.424Z,98899.00
2023-05-01T23:52:48.201Z,98901.60
2023-05-01T23:55:24.466Z,98901.80
2023-05-01T23:58:00.676Z,98906.20
